createdAt,value
2022-07-25T00:01:30.225Z,6.22
2022-07-25T00:03:59.270Z,6.55
2022-07-25T00:06:29.530Z,6.18
2022-07-25T00:08:58.421Z,13.55
2022-07-25T00:11:27.359Z,6.93
2022-07-25T00:13:55.730Z,7.80
2022-07-25T00:16:24.523Z,8.43
2022-07-25T00:18:53.227Z,6.20
2022-07-25T00:21:22.116Z,6.43
2022-07-25T00:23:52.238Z,8.55
2022-07-25T00:26:21.176Z,6.00
2022-07-25T00:28:49.675Z,8.65
2022-07-25T00:31:18.413Z,6.20
2022-07-25T00:33:47.137Z,6.57
2022-07-25T00:36:15.879Z,6.72
2022-07-25T00:38:44.628Z,8.52
2022-07-25T00:41:14.672Z,6.55
2022-07-25T00:43:44.818Z,7.03
2022-07-25T00:46:14.727Z,6.72
2022-07-25T00:48:48.144Z,6.70
2022-07-25T00:51:17.497Z,7.57
2022-07-25T00:53:46.458Z,7.35
2022-07-25T00:56:17.073Z,12.38
2022-07-25T00:58:46.323Z,6.95
2022-07-25T01:01:15.137Z,6.63
2022-07-25T01:03:43.994Z,8.73
2022-07-25T01:06:12.687Z,7.68
2022-07-25T01:08:41.514Z,6.85
2022-07-25T01:11:11.970Z,6.70
2022-07-25T01:13:41.666Z,6.53
2022-07-25T01:16:10.395Z,6.80
2022-07-25T01:18:39.073Z,8.50
2022-07-25T01:21:09.562Z,7.10
2022-07-25T01:26:07.033Z,7.90
2022-07-25T01:28:35.428Z,9.13
2022-07-25T01:31:04.146Z,10.65
2022-07-25T01:33:32.845Z,11.50
2022-07-25T01:36:01.535Z,9.13
2022-07-25T01:38:31.557Z,8.73
2022-07-25T01:41:00.310Z,9.18
2022-07-25T01:43:28.667Z,9.75
2022-07-25T01:45:57.663Z,9.60
2022-07-25T01:48:26.508Z,8.90
2022-07-25T01:50:55.344Z,9.48
2022-07-25T01:53:24.174Z,12.90
2022-07-25T01:55:54.964Z,10.20
2022-07-25T01:58:26.107Z,10.55
2022-07-25T02:00:55.674Z,11.05
2022-07-25T02:03:33.661Z,10.75
2022-07-25T02:06:03.473Z,11.73
2022-07-25T02:08:32.467Z,11.25
2022-07-25T02:11:03.256Z,12.00
2022-07-25T02:13:31.757Z,9.68
2022-07-25T02:16:00.466Z,11.23
2022-07-25T02:18:29.673Z,10.73
2022-07-25T02:20:58.406Z,10.88
2022-07-25T02:23:27.085Z,10.00
2022-07-25T02:25:55.449Z,16.60
2022-07-25T02:28:25.479Z,9.80
2022-07-25T02:30:54.445Z,15.35
2022-07-25T02:33:23.163Z,13.45
2022-07-25T02:35:51.789Z,12.00
2022-07-25T02:38:20.841Z,12.07
2022-07-25T02:40:49.648Z,12.57
2022-07-25T02:43:18.772Z,11.18
2022-07-25T02:45:49.051Z,12.23
2022-07-25T02:50:46.354Z,10.75
2022-07-25T02:53:15.070Z,12.05
2022-07-25T02:55:43.938Z,11.50
2022-07-25T02:58:12.616Z,11.15
2022-07-25T03:00:41.380Z,12.07
2022-07-25T03:03:14.729Z,13.77
2022-07-25T03:08:11.829Z,12.18
2022-07-25T03:10:40.183Z,11.13
2022-07-25T03:13:08.911Z,10.77
2022-07-25T03:15:37.665Z,12.63
2022-07-25T03:18:06.641Z,11.73
2022-07-25T03:20:36.818Z,11.20
2022-07-25T03:23:05.529Z,11.73
2022-07-25T03:25:34.140Z,11.77
2022-07-25T03:28:03.245Z,17.02
2022-07-25T03:30:32.124Z,11.40
2022-07-25T03:33:00.791Z,10.68
2022-07-25T03:35:29.493Z,13.45
2022-07-25T03:37:59.651Z,10.10
2022-07-25T03:40:28.121Z,11.02
2022-07-25T03:42:56.959Z,11.10
2022-07-25T03:45:25.757Z,10.93
2022-07-25T03:47:54.599Z,10.70
2022-07-25T03:50:23.409Z,12.07
2022-07-25T03:52:51.791Z,10.43
2022-07-25T03:55:21.915Z,10.10
2022-07-25T03:57:50.708Z,9.52
2022-07-25T04:00:19.864Z,10.05
2022-07-25T04:02:48.757Z,19.63
2022-07-25T04:05:17.516Z,10.80
2022-07-25T04:07:46.017Z,13.55
2022-07-25T04:10:14.843Z,10.57
2022-07-25T04:12:45.751Z,11.30
2022-07-25T04:15:14.815Z,11.18
2022-07-25T04:20:14.481Z,9.55
2022-07-25T04:22:46.965Z,15.43
2022-07-25T04:25:16.140Z,10.15
2022-07-25T04:27:46.299Z,12.15
2022-07-25T04:30:23.894Z,9.70
2022-07-25T04:32:54.048Z,11.73
2022-07-25T04:35:23.016Z,10.70
2022-07-25T04:37:51.406Z,13.00
2022-07-25T04:40:20.161Z,12.02
2022-07-25T04:42:50.253Z,8.32
2022-07-25T04:45:19.086Z,11.50
2022-07-25T04:47:48.022Z,10.73
2022-07-25T04:50:19.624Z,11.98
2022-07-25T04:52:50.206Z,8.63
2022-07-25T04:55:18.933Z,12.10
2022-07-25T04:57:49.146Z,9.63
2022-07-25T05:00:18.262Z,9.60
2022-07-25T05:02:47.062Z,7.90
2022-07-25T05:05:20.808Z,8.63
2022-07-25T05:07:50.757Z,7.03
2022-07-25T05:10:19.624Z,7.97
2022-07-25T05:12:49.706Z,9.13
2022-07-25T05:15:18.490Z,6.35
2022-07-25T05:17:47.310Z,6.72
2022-07-25T05:20:17.032Z,9.48
2022-07-25T05:22:45.463Z,5.65
2022-07-25T05:25:16.811Z,7.68
2022-07-25T05:27:45.553Z,5.38
2022-07-25T05:30:16.163Z,4.80
2022-07-25T05:32:46.478Z,5.95
2022-07-25T05:35:16.870Z,4.82
2022-07-25T05:37:45.224Z,4.70
2022-07-25T05:40:14.697Z,5.68
2022-07-25T05:42:43.350Z,5.82
2022-07-25T05:45:12.444Z,6.55
2022-07-25T05:47:44.961Z,7.60
2022-07-25T05:50:13.713Z,5.78
2022-07-25T05:52:42.124Z,5.68
2022-07-25T05:55:11.235Z,5.50
2022-07-25T05:57:40.019Z,5.32
2022-07-25T06:00:09.795Z,8.25
2022-07-25T06:02:38.654Z,5.40
2022-07-25T06:05:09.723Z,7.13
2022-07-25T06:07:38.094Z,7.88
2022-07-25T06:10:07.495Z,4.57
2022-07-25T06:12:36.637Z,4.30
2022-07-25T06:15:06.763Z,4.03
2022-07-25T06:17:35.472Z,4.57
2022-07-25T06:20:04.513Z,6.25
2022-07-25T06:22:34.457Z,7.50
2022-07-25T06:25:03.510Z,6.50
2022-07-25T06:27:32.506Z,4.57
2022-07-25T06:30:01.332Z,4.22
2022-07-25T06:32:30.271Z,5.63
2022-07-25T06:34:59.338Z,4.78
2022-07-25T06:37:27.757Z,5.63
2022-07-25T06:39:57.942Z,4.78
2022-07-25T06:42:27.262Z,8.05
2022-07-25T06:44:55.949Z,3.75
2022-07-25T06:47:24.636Z,3.72
2022-07-25T06:49:53.652Z,4.65
2022-07-25T06:52:22.998Z,4.13
2022-07-25T06:54:51.685Z,8.15
2022-07-25T06:57:21.928Z,5.40
2022-07-25T07:02:19.207Z,6.13
2022-07-25T07:04:47.638Z,4.10
2022-07-25T07:07:16.837Z,3.40
2022-07-25T07:09:45.908Z,5.45
2022-07-25T07:12:14.606Z,3.13
2022-07-25T07:14:45.392Z,3.83
2022-07-25T07:17:14.264Z,4.22
2022-07-25T07:19:45.899Z,3.75
2022-07-25T07:22:14.629Z,4.70
2022-07-25T07:24:45.225Z,4.55
2022-07-25T07:27:19.128Z,3.80
2022-07-25T07:29:49.525Z,3.78
2022-07-25T07:32:19.029Z,6.80
2022-07-25T07:34:47.750Z,6.13
2022-07-25T07:37:16.745Z,6.78
2022-07-25T07:39:45.577Z,3.33
2022-07-25T07:42:14.305Z,7.20
2022-07-25T07:44:43.238Z,3.55
2022-07-25T07:47:14.438Z,3.17
2022-07-25T07:49:48.378Z,2.67
2022-07-25T07:52:19.037Z,6.32
2022-07-25T07:55:05.255Z,4.20
2022-07-25T07:57:34.119Z,6.25
2022-07-25T08:00:04.212Z,2.95
2022-07-25T08:02:47.396Z,6.45
2022-07-25T08:05:21.894Z,4.47
2022-07-25T08:07:51.826Z,2.53
2022-07-25T08:12:50.631Z,2.40
2022-07-25T08:15:20.596Z,3.58
2022-07-25T08:17:51.595Z,3.75
2022-07-25T08:23:04.769Z,7.63
2022-07-25T08:25:33.519Z,10.18
2022-07-25T08:28:02.389Z,6.47
2022-07-25T08:30:31.228Z,3.20
2022-07-25T08:33:04.714Z,5.88
2022-07-25T08:35:34.512Z,4.90
2022-07-25T08:38:04.823Z,3.47
2022-07-25T08:40:34.204Z,5.63
2022-07-25T08:43:03.668Z,2.90
2022-07-25T08:45:32.456Z,3.13
2022-07-25T08:48:02.793Z,4.97
2022-07-25T08:50:31.554Z,3.10
2022-07-25T08:53:31.065Z,3.40
2022-07-25T08:55:49.589Z,2.45
2022-07-25T08:58:19.197Z,6.47
2022-07-25T09:00:48.009Z,2.85
2022-07-25T09:03:18.223Z,4.55
2022-07-25T09:05:47.269Z,2.85
2022-07-25T09:08:17.640Z,2.50
2022-07-25T09:10:48.265Z,2.25
2022-07-25T09:13:17.753Z,4.75
2022-07-25T09:15:48.498Z,4.30
2022-07-25T09:18:24.862Z,4.35
2022-07-25T09:20:55.655Z,5.50
2022-07-25T09:23:32.176Z,4.57
2022-07-25T09:26:05.462Z,2.50
2022-07-25T09:28:42.604Z,3.28
2022-07-25T09:31:11.969Z,3.35
2022-07-25T09:33:48.873Z,3.83
2022-07-25T09:36:17.733Z,3.17
2022-07-25T09:38:53.726Z,4.25
2022-07-25T09:41:22.670Z,4.75
2022-07-25T09:43:51.113Z,4.13
2022-07-25T09:46:31.126Z,4.00
2022-07-25T09:49:01.982Z,6.43
2022-07-25T09:51:30.845Z,4.90
2022-07-25T09:53:59.902Z,3.60
2022-07-25T09:56:28.619Z,2.65
2022-07-25T09:59:01.605Z,3.00
2022-07-25T10:01:36.291Z,4.55
2022-07-25T10:04:14.700Z,6.25
2022-07-25T10:06:50.544Z,3.60
2022-07-25T10:09:20.963Z,3.22
2022-07-25T10:12:05.257Z,5.22
2022-07-25T10:14:34.329Z,6.63
2022-07-25T10:17:03.082Z,3.60
2022-07-25T10:19:50.042Z,4.50
2022-07-25T10:22:29.635Z,4.05
2022-07-25T10:25:15.596Z,2.28
2022-07-25T10:27:48.660Z,2.40
2022-07-25T10:30:23.275Z,2.55
2022-07-25T10:32:52.582Z,2.65
2022-07-25T10:35:22.290Z,3.45
2022-07-25T10:37:52.229Z,6.82
2022-07-25T10:40:28.160Z,2.63
2022-07-25T10:43:03.358Z,2.30
2022-07-25T10:45:43.068Z,2.13
2022-07-25T10:48:13.411Z,2.38
2022-07-25T10:50:57.553Z,7.28
2022-07-25T10:53:33.659Z,2.85
2022-07-25T10:56:08.615Z,3.30
2022-07-25T10:58:48.701Z,1.77
2022-07-25T11:01:22.141Z,2.78
2022-07-25T11:03:51.029Z,2.60
2022-07-25T11:06:32.553Z,2.65
2022-07-25T11:09:01.514Z,2.13
2022-07-25T11:11:37.736Z,2.83
2022-07-25T11:14:07.676Z,2.75
2022-07-25T11:16:35.901Z,2.45
2022-07-25T11:19:04.643Z,2.10
2022-07-25T11:21:45.377Z,4.78
2022-07-25T11:24:13.888Z,4.82
2022-07-25T11:26:47.029Z,2.10
2022-07-25T11:29:27.057Z,7.13
2022-07-25T11:31:57.303Z,2.17
2022-07-25T11:34:27.679Z,2.95
2022-07-25T11:36:58.674Z,2.28
2022-07-25T11:39:28.553Z,1.80
2022-07-25T11:42:03.372Z,1.55
2022-07-25T11:44:33.692Z,2.95
2022-07-25T11:47:05.795Z,3.50
2022-07-25T11:49:45.271Z,2.50
2022-07-25T11:52:22.711Z,5.20
2022-07-25T11:54:52.955Z,2.60
2022-07-25T11:57:22.748Z,2.30
2022-07-25T11:59:51.070Z,3.03
2022-07-25T12:02:24.193Z,1.63
2022-07-25T12:04:57.961Z,2.97
2022-07-25T12:07:45.640Z,4.72
2022-07-25T12:10:17.241Z,1.75
2022-07-25T12:12:49.657Z,2.83
2022-07-25T12:15:20.737Z,4.85
2022-07-25T12:17:51.173Z,5.90
2022-07-25T12:20:21.728Z,5.15
2022-07-25T12:22:52.971Z,3.63
2022-07-25T12:25:21.682Z,2.88
2022-07-25T12:27:51.036Z,1.40
2022-07-25T12:32:48.173Z,5.40
2022-07-25T12:35:16.614Z,6.73
2022-07-25T12:37:45.524Z,6.27
2022-07-25T12:40:16.628Z,2.20
2022-07-25T12:42:45.479Z,1.67
2022-07-25T12:45:14.836Z,1.30
2022-07-25T12:47:45.487Z,2.35
2022-07-25T12:50:14.583Z,1.15
2022-07-25T12:52:44.302Z,2.78
2022-07-25T12:55:16.342Z,5.03
2022-07-25T12:57:45.087Z,5.72
2022-07-25T13:00:16.078Z,2.70
2022-07-25T13:02:45.000Z,1.98
2022-07-25T13:05:13.763Z,3.05
2022-07-25T13:07:41.897Z,7.82
2022-07-25T13:10:10.864Z,3.35
2022-07-25T13:12:40.573Z,2.28
2022-07-25T13:15:10.822Z,4.07
2022-07-25T13:17:40.447Z,3.75
2022-07-25T13:20:10.692Z,3.78
2022-07-25T13:22:39.749Z,1.55
2022-07-25T13:25:08.939Z,1.63
2022-07-25T13:30:09.591Z,3.97
2022-07-25T13:32:38.955Z,1.83
2022-07-25T13:35:08.041Z,2.15
2022-07-25T13:37:36.209Z,2.53
2022-07-25T13:40:05.459Z,1.50
2022-07-25T13:42:33.815Z,2.92
2022-07-25T13:45:02.389Z,8.43
2022-07-25T13:47:33.419Z,4.83
2022-07-25T13:50:01.775Z,2.05
2022-07-25T13:52:29.769Z,2.90
2022-07-25T13:54:58.013Z,5.55
2022-07-25T13:57:26.573Z,2.78
2022-07-25T13:59:54.983Z,5.93
2022-07-25T14:02:23.315Z,5.63
2022-07-25T14:04:52.653Z,2.33
2022-07-25T14:07:20.957Z,1.10
2022-07-25T14:09:49.487Z,5.63
2022-07-25T14:12:18.790Z,2.00
2022-07-25T14:14:47.072Z,1.55
2022-07-25T14:17:15.442Z,1.70
2022-07-25T14:19:43.422Z,2.60
2022-07-25T14:24:42.822Z,1.63
2022-07-25T14:27:11.911Z,3.17
2022-07-25T14:29:40.358Z,2.78
2022-07-25T14:32:09.034Z,4.57
2022-07-25T14:34:38.003Z,8.67
2022-07-25T14:37:06.733Z,2.05
2022-07-25T14:39:39.015Z,3.75
2022-07-25T14:42:11.258Z,2.00
2022-07-25T14:44:39.857Z,4.05
2022-07-25T14:47:12.296Z,4.40
2022-07-25T14:49:41.330Z,4.38
2022-07-25T14:52:09.607Z,6.20
2022-07-25T14:54:39.789Z,3.38
2022-07-25T14:57:08.520Z,1.65
2022-07-25T14:59:37.198Z,2.97
2022-07-25T15:02:05.558Z,1.73
2022-07-25T15:04:33.711Z,3.95
2022-07-25T15:07:02.196Z,5.15
2022-07-25T15:09:31.828Z,7.27
2022-07-25T15:12:01.877Z,3.70
2022-07-25T15:14:30.852Z,3.97
2022-07-25T15:16:59.276Z,5.13
2022-07-25T15:19:27.542Z,2.85
2022-07-25T15:21:56.333Z,2.40
2022-07-25T15:24:29.052Z,6.07
2022-07-25T15:26:58.416Z,6.45
2022-07-25T15:29:28.688Z,3.90
2022-07-25T15:31:56.736Z,2.35
2022-07-25T15:34:25.311Z,5.87
2022-07-25T15:36:55.347Z,5.23
2022-07-25T15:39:24.527Z,4.35
2022-07-25T15:44:21.171Z,2.10
2022-07-25T15:46:50.911Z,3.60
2022-07-25T15:49:19.538Z,4.70
2022-07-25T15:51:48.251Z,1.73
2022-07-25T15:54:16.721Z,4.33
2022-07-25T15:56:45.010Z,7.13
2022-07-25T15:59:14.094Z,2.47
2022-07-25T16:01:43.499Z,4.32
2022-07-25T16:04:13.314Z,2.50
2022-07-25T16:06:41.776Z,4.18
2022-07-25T16:09:12.475Z,14.85
2022-07-25T16:11:41.430Z,2.17
2022-07-25T16:14:11.284Z,1.83
2022-07-25T16:16:39.820Z,3.63
2022-07-25T16:21:40.558Z,5.47
2022-07-25T16:24:11.403Z,3.83
2022-07-25T16:26:40.191Z,4.07
2022-07-25T16:36:37.460Z,2.25
2022-07-25T16:39:08.246Z,4.50
2022-07-25T16:41:37.159Z,2.45
2022-07-25T16:46:34.687Z,5.05
2022-07-25T16:49:04.839Z,5.45
2022-07-25T16:51:37.110Z,4.30
2022-07-25T16:54:07.969Z,1.75
2022-07-25T16:56:37.759Z,4.28
2022-07-25T16:59:07.225Z,1.58
2022-07-25T17:01:36.610Z,1.40
2022-07-25T17:04:06.488Z,4.43
2022-07-25T17:06:35.457Z,11.43
2022-07-25T17:09:04.629Z,1.63
2022-07-25T17:11:35.695Z,3.85
2022-07-25T17:14:05.123Z,6.07
2022-07-25T17:16:34.034Z,1.10
2022-07-25T17:21:33.301Z,2.90
2022-07-25T17:24:03.181Z,4.22
2022-07-25T17:26:31.994Z,1.48
2022-07-25T17:29:02.343Z,3.17
2022-07-25T17:31:30.942Z,4.07
2022-07-25T17:33:59.887Z,3.42
2022-07-25T17:36:29.277Z,3.45
2022-07-25T17:38:58.217Z,2.72
2022-07-25T17:41:27.097Z,4.13
2022-07-25T17:43:55.792Z,2.83
2022-07-25T17:46:26.184Z,1.90
2022-07-25T17:48:55.383Z,2.70
2022-07-25T17:51:24.293Z,3.47
2022-07-25T17:53:53.976Z,3.20
2022-07-25T17:56:22.777Z,5.93
2022-07-25T17:58:51.159Z,10.57
2022-07-25T18:01:20.085Z,9.25
2022-07-25T18:03:50.697Z,9.45
2022-07-25T18:10:09.536Z,6.93
2022-07-25T18:12:38.166Z,5.80
2022-07-25T18:15:08.552Z,9.77
2022-07-25T18:17:37.293Z,6.57
2022-07-25T18:20:08.485Z,7.80
2022-07-25T18:22:38.275Z,7.40
2022-07-25T18:25:08.121Z,7.43
2022-07-25T18:27:36.862Z,5.70
2022-07-25T18:30:08.019Z,7.10
2022-07-25T18:32:36.798Z,6.15
2022-07-25T18:35:07.973Z,5.30
2022-07-25T18:37:37.181Z,6.40
2022-07-25T18:40:07.257Z,5.30
2022-07-25T18:45:06.162Z,8.10
2022-07-25T18:50:04.203Z,5.80
2022-07-25T18:52:36.345Z,6.20
2022-07-25T18:55:06.783Z,7.53
2022-07-25T18:57:35.794Z,3.45
2022-07-25T19:00:05.819Z,4.68
2022-07-25T19:02:34.698Z,4.70
2022-07-25T19:05:03.558Z,4.47
2022-07-25T19:07:34.741Z,5.03
2022-07-25T19:10:03.527Z,5.30
2022-07-25T19:12:32.288Z,2.95
2022-07-25T19:15:00.923Z,10.10
2022-07-25T19:17:31.518Z,6.43
2022-07-25T19:20:01.006Z,7.50
2022-07-25T19:22:29.325Z,6.07
2022-07-25T19:25:01.223Z,4.93
2022-07-25T19:27:30.136Z,7.57
2022-07-25T19:29:59.000Z,6.10
2022-07-25T19:32:28.161Z,3.85
2022-07-25T19:34:56.578Z,7.82
2022-07-25T19:37:25.557Z,7.20
2022-07-25T19:39:54.300Z,6.05
2022-07-25T19:42:24.521Z,5.78
2022-07-25T19:44:53.331Z,7.22
2022-07-25T19:47:22.064Z,5.25
2022-07-25T19:49:51.498Z,9.18
2022-07-25T19:52:20.225Z,4.13
2022-07-25T19:54:48.912Z,4.72
2022-07-25T19:57:17.895Z,5.78
2022-07-25T19:59:48.040Z,8.18
2022-07-25T20:04:45.113Z,5.63
2022-07-25T20:07:13.818Z,7.85
2022-07-25T20:09:42.457Z,6.43
2022-07-25T20:12:11.491Z,6.68
2022-07-25T20:14:40.182Z,4.93
2022-07-25T20:17:10.521Z,4.82
2022-07-25T20:19:39.329Z,5.60
2022-07-25T20:22:08.144Z,3.72
2022-07-25T20:24:36.837Z,4.13
2022-07-25T20:27:05.822Z,5.70
2022-07-25T20:29:34.846Z,5.07
2022-07-25T20:32:03.918Z,4.03
2022-07-25T20:34:33.789Z,3.92
2022-07-25T20:39:30.841Z,3.97
2022-07-25T20:41:59.686Z,3.47
2022-07-25T20:44:28.615Z,4.65
2022-07-25T20:46:57.023Z,4.43
2022-07-25T20:49:25.724Z,4.13
2022-07-25T20:51:56.324Z,7.15
2022-07-25T20:54:25.025Z,4.13
2022-07-25T20:56:53.796Z,3.35
2022-07-25T20:59:22.517Z,5.13
2022-07-25T21:01:51.872Z,3.28
2022-07-25T21:04:20.751Z,3.50
2022-07-25T21:06:49.643Z,3.75
2022-07-25T21:09:19.958Z,3.42
2022-07-25T21:11:48.664Z,3.03
2022-07-25T21:14:17.364Z,3.47
2022-07-25T21:16:45.778Z,3.38
2022-07-25T21:19:14.469Z,2.95
2022-07-25T21:21:43.147Z,7.88
2022-07-25T21:24:12.758Z,10.85
2022-07-25T21:26:42.814Z,12.18
2022-07-25T21:29:11.850Z,6.22
2022-07-25T21:31:40.388Z,13.20
2022-07-25T21:34:08.992Z,5.68
2022-07-25T21:36:37.658Z,3.08
2022-07-25T21:39:06.425Z,4.20
2022-07-25T21:41:35.365Z,3.80
2022-07-25T21:44:05.613Z,2.97
2022-07-25T21:46:34.089Z,5.45
2022-07-25T21:49:40.826Z,5.22
2022-07-25T21:52:08.917Z,3.10
2022-07-25T21:54:42.840Z,4.25
2022-07-25T21:57:13.413Z,3.78
2022-07-25T21:59:44.665Z,3.28
2022-07-25T22:02:13.906Z,3.55
2022-07-25T22:04:42.292Z,3.92
2022-07-25T22:07:12.544Z,3.90
2022-07-25T22:09:41.841Z,3.85
2022-07-25T22:12:11.036Z,3.00
2022-07-25T22:14:39.668Z,3.60
2022-07-25T22:17:10.286Z,5.60
2022-07-25T22:19:38.654Z,3.38
2022-07-25T22:22:07.712Z,2.90
2022-07-25T22:24:36.346Z,4.35
2022-07-25T22:29:34.999Z,5.63
2022-07-25T22:32:03.821Z,3.38
2022-07-25T22:34:34.079Z,4.00
2022-07-25T22:37:02.852Z,4.45
2022-07-25T22:39:31.452Z,2.95
2022-07-25T22:42:00.048Z,3.10
2022-07-25T22:44:28.772Z,2.80
2022-07-25T22:46:57.474Z,3.10
2022-07-25T22:49:26.323Z,2.53
2022-07-25T22:51:56.350Z,4.28
2022-07-25T22:54:25.396Z,2.47
2022-07-25T22:56:54.018Z,3.50
2022-07-25T22:59:22.596Z,2.53
2022-07-25T23:01:50.833Z,3.72
2022-07-25T23:04:19.550Z,2.72
2022-07-25T23:06:48.366Z,6.97
2022-07-25T23:09:18.499Z,2.75
2022-07-25T23:14:15.448Z,3.28
2022-07-25T23:16:43.798Z,4.60
2022-07-25T23:19:12.442Z,3.95
2022-07-25T23:21:41.121Z,4.72
2022-07-25T23:24:10.277Z,2.35
2022-07-25T23:26:40.253Z,3.28
2022-07-25T23:29:09.221Z,3.83
2022-07-25T23:31:37.771Z,2.83
2022-07-25T23:34:06.983Z,2.60
2022-07-25T23:36:35.585Z,3.15
2022-07-25T23:39:04.283Z,2.85
2022-07-25T23:41:33.635Z,4.07
2022-07-25T23:44:04.539Z,2.53
2022-07-25T23:46:34.903Z,2.80
2022-07-25T23:49:03.991Z,2.20
2022-07-25T23:51:32.784Z,3.92
2022-07-25T23:54:01.580Z,2.55
2022-07-25T23:56:30.120Z,3.33
2022-07-25T23:58:58.988Z,2.90
